| time (UTC) | temp F | wind direction | speed knots | gust knots | rain 1hr in | rain 24hr in | rain mn in | humidity % | barometer mb |
| 20260507234642 | 68 | 219 | 2.6 | 5.2 | 0.00 | 0.00 | 0.00 | 47 | 1010.9 |
| 20260507234138 | 68 | 215 | 1.7 | 6.1 | 0.00 | 0.00 | 0.00 | 46 | 1010.7 |
| 20260507233635 | 68 | 228 | 3.5 | 6.1 | 0.00 | 0.00 | 0.00 | 48 | 1010.8 |
| 20260507233133 | 68 | 182 | 4.3 | 7.0 | 0.00 | 0.00 | 0.00 | 47 | 1010.9 |
| 20260507232629 | 68 | 186 | 0.9 | 3.5 | 0.00 | 0.00 | 0.00 | 47 | 1010.9 |
| 20260507232127 | 68 | 189 | 6.1 | 9.6 | 0.00 | 0.00 | 0.00 | 47 | 1010.7 |
| 20260507231623 | 67 | 208 | 6.1 | 7.8 | 0.00 | 0.00 | 0.00 | 48 | 1011.0 |
| 20260507231120 | 67 | 227 | 3.5 | 7.0 | 0.00 | 0.00 | 0.00 | 49 | 1011.0 |
| 20260507230616 | 68 | 196 | 3.5 | 9.6 | 0.00 | 0.00 | 0.00 | 49 | 1011.2 |
| 20260507230114 | 68 | 223 | 2.6 | 3.5 | 0.00 | 0.00 | 0.00 | 46 | 1011.1 |
| 20260507225609 | 68 | 195 | 6.1 | 12.2 | 0.00 | 0.00 | 0.00 | 47 | 1011.3 |
| 20260507225106 | 68 | 169 | 4.3 | 7.8 | 0.00 | 0.00 | 0.00 | 47 | 1011.4 |
| 20260507224601 | 68 | 219 | 1.7 | 1.7 | 0.00 | 0.00 | 0.00 | 47 | 1011.3 |
| 20260507224058 | 68 | 228 | 4.3 | 6.1 | 0.00 | 0.00 | 0.00 | 45 | 1011.5 |
| 20260507223554 | 68 | 204 | 2.6 | 7.0 | 0.00 | 0.00 | 0.00 | 45 | 1011.5 |
| 20260507223051 | 68 | 241 | 4.3 | 9.6 | 0.00 | 0.00 | 0.00 | 44 | 1011.6 |
| 20260507222549 | 69 | 192 | 6.1 | 9.6 | 0.00 | 0.00 | 0.00 | 44 | 1011.7 |
| 20260507222045 | 70 | 206 | 4.3 | 5.2 | 0.00 | 0.00 | 0.00 | 44 | 1011.7 |
| 20260507221541 | 70 | 282 | 6.1 | 7.0 | 0.00 | 0.00 | 0.00 | 42 | 1011.7 |
| 20260507221038 | 70 | 292 | 6.1 | 7.0 | 0.00 | 0.00 | 0.00 | 41 | 1011.6 |
| 20260507220535 | 70 | 190 | 3.5 | 3.5 | 0.00 | 0.00 | 0.00 | 45 | 1011.8 |
| 20260507220033 | 69 | 204 | 6.1 | 8.7 | 0.00 | 0.00 | 0.00 | 46 | 1012.0 |
| 20260507215529 | 69 | 188 | 3.5 | 6.1 | 0.00 | 0.00 | 0.00 | 43 | 1011.8 |
| 20260507215027 | 69 | 166 | 3.5 | 5.2 | 0.00 | 0.00 | 0.00 | 44 | 1012.0 |
| 20260507214524 | 69 | 214 | 4.3 | 7.0 | 0.00 | 0.00 | 0.00 | 44 | 1012.0 |
| 20260507214020 | 68 | 225 | 1.7 | 3.5 | 0.00 | 0.00 | 0.00 | 45 | 1012.0 |
| 20260507213516 | 68 | 199 | 3.5 | 6.1 | 0.00 | 0.00 | 0.00 | 46 | 1012.0 |
| 20260507213013 | 69 | 249 | 2.6 | 7.0 | 0.00 | 0.00 | 0.00 | 42 | 1011.9 |
| 20260507212508 | 67 | 202 | 1.7 | 8.7 | 0.00 | 0.00 | 0.00 | 44 | 1012.1 |
| 20260507212006 | 68 | 275 | 3.5 | 8.7 | 0.00 | 0.00 | 0.00 | 45 | 1012.1 |
| 20260507211503 | 69 | 212 | 5.2 | 7.0 | 0.00 | 0.00 | 0.00 | 42 | 1012.1 |
| 20260507210959 | 68 | 198 | 4.3 | 7.0 | 0.00 | 0.00 | 0.00 | 44 | 1012.2 |
| 20260507210456 | 69 | 237 | 3.5 | 6.1 | 0.00 | 0.00 | 0.00 | 43 | 1012.2 |
| 20260507205953 | 70 | 208 | 6.1 | 7.0 | 0.00 | 0.00 | 0.00 | 40 | 1012.0 |
| 20260507205450 | 69 | 215 | 1.7 | 2.6 | 0.00 | 0.00 | 0.00 | 43 | 1012.1 |
| 20260507204946 | 68 | 199 | 3.5 | 5.2 | 0.00 | 0.00 | 0.00 | 43 | 1012.1 |
| 20260507204442 | 68 | 248 | 3.5 | 7.8 | 0.00 | 0.00 | 0.00 | 43 | 1012.1 |
| 20260507203940 | 69 | 254 | 4.3 | 7.0 | 0.00 | 0.00 | 0.00 | 41 | 1012.3 |
| 20260507203438 | 69 | 216 | 3.5 | 6.1 | 0.00 | 0.00 | 0.00 | 42 | 1012.4 |
| 20260507202934 | 69 | 164 | 6.1 | 12.2 | 0.00 | 0.00 | 0.00 | 46 | 1012.4 |
| 20260507202431 | 68 | 227 | 3.5 | 5.2 | 0.00 | 0.00 | 0.00 | 42 | 1012.4 |
| 20260507201926 | 71 | 238 | 4.3 | 6.1 | 0.00 | 0.00 | 0.00 | 40 | 1012.5 |
| 20260507201416 | 70 | 195 | 2.6 | 5.2 | 0.00 | 0.00 | 0.00 | 41 | 1012.3 |
| 20260507200913 | 69 | 177 | 3.5 | 7.0 | 0.00 | 0.00 | 0.00 | 42 | 1012.6 |
| 20260507200409 | 69 | 225 | 2.6 | 11.3 | 0.00 | 0.00 | 0.00 | 41 | 1012.5 |
| 20260507195904 | 69 | 193 | 4.3 | 7.8 | 0.00 | 0.00 | 0.00 | 41 | 1012.8 |
| 20260507195403 | 68 | 188 | 0.9 | 3.5 | 0.00 | 0.00 | 0.00 | 50 | 1012.9 |
| 20260507194859 | 69 | 211 | 5.2 | 8.7 | 0.00 | 0.00 | 0.00 | 43 | 1012.8 |
| 20260507194356 | 69 | 208 | 4.3 | 7.8 | 0.00 | 0.00 | 0.00 | 43 | 1012.9 |
| 20260507193852 | 68 | 201 | 4.3 | 6.1 | 0.00 | 0.00 | 0.00 | 47 | 1013.1 |
| 20260507193349 | 69 | 256 | 4.3 | 7.8 | 0.00 | 0.00 | 0.00 | 42 | 1013.0 |
| 20260507192845 | 69 | 208 | 3.5 | 11.3 | 0.00 | 0.00 | 0.00 | 43 | 1013.2 |
| 20260507192342 | 68 | 178 | 2.6 | 6.1 | 0.00 | 0.00 | 0.00 | 44 | 1013.2 |
| 20260507191838 | 68 | 192 | 3.5 | 6.1 | 0.00 | 0.00 | 0.00 | 48 | 1013.2 |
| 20260507191334 | 69 | 202 | 1.7 | 5.2 | 0.00 | 0.00 | 0.00 | 41 | 1013.3 |
| 20260507190832 | 68 | 220 | 4.3 | 7.0 | 0.00 | 0.00 | 0.00 | 42 | 1013.1 |
| 20260507190330 | 67 | 245 | 2.6 | 5.2 | 0.00 | 0.00 | 0.00 | 44 | 1013.5 |
| 20260507185829 | 69 | 244 | 2.6 | 8.7 | 0.00 | 0.00 | 0.00 | 43 | 1013.5 |
| 20260507185325 | 69 | 253 | 3.5 | 6.1 | 0.00 | 0.00 | 0.00 | 41 | 1013.5 |
| 20260507184822 | 68 | 208 | 4.3 | 6.1 | 0.00 | 0.00 | 0.00 | 45 | 1013.7 |
| 20260507184320 | 68 | 251 | 4.3 | 13.0 | 0.00 | 0.00 | 0.00 | 44 | 1013.7 |
| 20260507183817 | 67 | 188 | 4.3 | 6.1 | 0.00 | 0.00 | 0.00 | 44 | 1013.8 |
| 20260507183314 | 68 | 244 | 6.1 | 7.0 | 0.00 | 0.00 | 0.00 | 45 | 1013.7 |
| 20260507182811 | 68 | 247 | 3.5 | 7.0 | 0.00 | 0.00 | 0.00 | 44 | 1013.7 |
| 20260507182307 | 67 | 231 | 3.5 | 6.1 | 0.00 | 0.00 | 0.00 | 43 | 1013.9 |
| 20260507181803 | 67 | 165 | 2.6 | 7.8 | 0.00 | 0.00 | 0.00 | 46 | 1014.0 |
| 20260507181259 | 66 | 268 | 6.1 | 7.8 | 0.00 | 0.00 | 0.00 | 45 | 1014.0 |
| 20260507180756 | 68 | 209 | 2.6 | 8.7 | 0.00 | 0.00 | 0.00 | 48 | 1014.1 |
| 20260507180253 | 67 | 234 | 1.7 | 5.2 | 0.00 | 0.00 | 0.00 | 47 | 1014.1 |
| 20260507175748 | 66 | 209 | 5.2 | 11.3 | 0.00 | 0.00 | 0.00 | 46 | 1014.0 |
| 20260507175246 | 65 | 263 | 6.1 | 7.0 | 0.00 | 0.00 | 0.00 | 45 | 1014.1 |
| 20260507174743 | 66 | 269 | 7.0 | 9.6 | 0.00 | 0.00 | 0.00 | 44 | 1014.3 |
| 20260507174241 | 67 | 235 | 3.5 | 13.0 | 0.00 | 0.00 | 0.00 | 42 | 1014.2 |
| 20260507173739 | 66 | 249 | 7.0 | 7.8 | 0.00 | 0.00 | 0.00 | 44 | 1014.6 |
| 20260507173235 | 66 | 261 | 6.1 | 9.6 | 0.00 | 0.00 | 0.00 | 45 | 1014.4 |
| 20260507172731 | 66 | 223 | 4.3 | 8.7 | 0.00 | 0.00 | 0.00 | 45 | 1014.6 |
| 20260507172228 | 66 | 212 | 4.3 | 7.0 | 0.00 | 0.00 | 0.00 | 44 | 1014.8 |
| 20260507171723 | 66 | 240 | 8.7 | 12.2 | 0.00 | 0.00 | 0.00 | 45 | 1014.8 |
| 20260507171220 | 65 | 292 | 3.5 | 5.2 | 0.00 | 0.00 | 0.00 | 49 | 1014.9 |
| 20260507170717 | 66 | 254 | 5.2 | 7.0 | 0.00 | 0.00 | 0.00 | 45 | 1015.1 |
| 20260507170214 | 65 | 238 | 2.6 | 5.2 | 0.00 | 0.00 | 0.00 | 47 | 1015.1 |
| 20260507165710 | 65 | 260 | 5.2 | 7.0 | 0.00 | 0.00 | 0.00 | 45 | 1015.2 |
| 20260507165206 | 65 | 278 | 4.3 | 7.8 | 0.00 | 0.00 | 0.00 | 50 | 1015.3 |
| 20260507164702 | 65 | 223 | 2.6 | 7.8 | 0.00 | 0.00 | 0.00 | 48 | 1015.3 |
| 20260507164200 | 65 | 214 | 3.5 | 9.6 | 0.00 | 0.00 | 0.00 | 52 | 1015.4 |
| 20260507163656 | 65 | 184 | 5.2 | 6.1 | 0.00 | 0.00 | 0.00 | 46 | 1015.5 |
| 20260507163154 | 64 | 259 | 2.6 | 5.2 | 0.00 | 0.00 | 0.00 | 49 | 1015.4 |
| 20260507162649 | 64 | 283 | 7.8 | 9.6 | 0.00 | 0.00 | 0.00 | 47 | 1015.6 |
| 20260507162145 | 64 | 256 | 3.5 | 9.6 | 0.00 | 0.00 | 0.00 | 51 | 1015.5 |
| 20260507161642 | 64 | 251 | 4.3 | 6.1 | 0.00 | 0.00 | 0.00 | 50 | 1015.7 |
| 20260507161138 | 63 | 259 | 6.1 | 7.8 | 0.00 | 0.00 | 0.00 | 48 | 1015.5 |
| 20260507160635 | 63 | 187 | 1.7 | 7.8 | 0.00 | 0.00 | 0.00 | 52 | 1015.6 |
| 20260507160132 | 64 | 267 | 3.5 | 7.8 | 0.00 | 0.00 | 0.00 | 49 | 1015.7 |
| 20260507155627 | 64 | 207 | 1.7 | 5.2 | 0.00 | 0.00 | 0.00 | 52 | 1015.7 |
| 20260507155119 | 63 | 223 | 3.5 | 5.2 | 0.00 | 0.00 | 0.00 | 51 | 1015.9 |
| 20260507154615 | 63 | 256 | 4.3 | 5.2 | 0.00 | 0.00 | 0.00 | 52 | 1015.9 |
| 20260507154113 | 63 | 249 | 3.5 | 7.0 | 0.00 | 0.00 | 0.00 | 49 | 1015.8 |
| 20260507153609 | 62 | 240 | 3.5 | 7.8 | 0.00 | 0.00 | 0.00 | 54 | 1015.9 |
| 20260507153106 | 62 | 223 | 1.7 | 7.8 | 0.00 | 0.00 | 0.00 | 56 | 1015.9 |
| 20260507152602 | 62 | 265 | 3.5 | 7.0 | 0.00 | 0.00 | 0.00 | 50 | 1015.9 |
| 20260507152057 | 62 | 173 | 1.7 | 7.0 | 0.00 | 0.00 | 0.00 | 56 | 1015.9 |
| 20260507151554 | 61 | 225 | 2.6 | 3.5 | 0.00 | 0.00 | 0.00 | 52 | 1015.8 |
| 20260507151051 | 61 | 204 | 2.6 | 5.2 | 0.00 | 0.00 | 0.00 | 53 | 1016.0 |
| 20260507150548 | 61 | 240 | 2.6 | 6.1 | 0.00 | 0.00 | 0.00 | 52 | 1016.0 |
| 20260507150045 | 60 | 206 | 4.3 | 7.0 | 0.00 | 0.00 | 0.00 | 54 | 1016.1 |
| 20260507145540 | 60 | 225 | 3.5 | 5.2 | 0.00 | 0.00 | 0.00 | 54 | 1016.2 |
| 20260507145038 | 59 | 258 | 5.2 | 6.1 | 0.00 | 0.00 | 0.00 | 55 | 1016.1 |
| 20260507144534 | 59 | 271 | 4.3 | 7.0 | 0.00 | 0.00 | 0.00 | 57 | 1016.3 |
| 20260507144032 | 59 | 242 | 1.7 | 7.0 | 0.00 | 0.00 | 0.00 | 60 | 1016.3 |
| 20260507143528 | 59 | 246 | 3.5 | 3.5 | 0.00 | 0.00 | 0.00 | 58 | 1016.3 |
| 20260507143021 | 59 | 230 | 1.7 | 6.1 | 0.00 | 0.00 | 0.00 | 58 | 1016.4 |
| 20260507142515 | 58 | 225 | 3.5 | 3.5 | 0.00 | 0.00 | 0.00 | 62 | 1016.4 |
| 20260507142007 | 57 | 185 | 3.5 | 3.5 | 0.00 | 0.00 | 0.00 | 60 | 1016.2 |
| 20260507141503 | 57 | 274 | 5.2 | 6.1 | 0.00 | 0.00 | 0.00 | 61 | 1016.5 |
| 20260507141000 | 57 | 199 | 1.7 | 5.2 | 0.00 | 0.00 | 0.00 | 62 | 1016.6 |
| 20260507140456 | 57 | 218 | 1.7 | 2.6 | 0.00 | 0.00 | 0.00 | 61 | 1016.6 |
| 20260507135954 | 56 | 155 | 0.9 | 2.6 | 0.00 | 0.00 | 0.00 | 62 | 1016.4 |
| 20260507135450 | 56 | 200 | 2.6 | 2.6 | 0.00 | 0.00 | 0.00 | 65 | 1016.5 |
| 20260507134942 | 55 | 275 | 3.5 | 3.5 | 0.00 | 0.00 | 0.00 | 64 | 1016.6 |
| 20260507134438 | 55 | 195 | 3.5 | 3.5 | 0.00 | 0.00 | 0.00 | 64 | 1016.5 |
| 20260507133934 | 55 | 193 | 4.3 | 6.1 | 0.00 | 0.00 | 0.00 | 65 | 1016.5 |
| 20260507133430 | 54 | 190 | 3.5 | 5.2 | 0.00 | 0.00 | 0.00 | 66 | 1016.6 |
| 20260507132924 | 53 | 193 | 1.7 | 2.6 | 0.00 | 0.00 | 0.00 | 66 | 1016.7 |
| 20260507132419 | 53 | 209 | 4.3 | 6.1 | 0.00 | 0.00 | 0.00 | 69 | 1016.6 |
| 20260507131916 | 52 | 229 | 2.6 | 3.5 | 0.00 | 0.00 | 0.00 | 70 | 1016.6 |
| 20260507131413 | 51 | 166 | 2.6 | 3.5 | 0.00 | 0.00 | 0.00 | 69 | 1016.7 |
| 20260507130910 | 51 | 151 | 1.7 | 2.6 | 0.00 | 0.00 | 0.00 | 71 | 1016.6 |
| 20260507130407 | 51 | 181 | 1.7 | 2.6 | 0.00 | 0.00 | 0.00 | 70 | 1016.8 |
| 20260507125906 | 50 | 173 | 3.5 | 5.2 | 0.00 | 0.00 | 0.00 | 70 | 1016.8 |
| 20260507125403 | 50 | 178 | 1.7 | 2.6 | 0.00 | 0.00 | 0.00 | 71 | 1016.8 |
| 20260507124901 | 49 | 185 | 1.7 | 3.5 | 0.00 | 0.00 | 0.00 | 71 | 1016.6 |
| 20260507124356 | 49 | 196 | 1.7 | 2.6 | 0.00 | 0.00 | 0.00 | 71 | 1016.8 |
| 20260507123855 | 48 | 171 | 0.9 | 3.5 | 0.00 | 0.00 | 0.00 | 72 | 1016.8 |
| 20260507123352 | 48 | 185 | 1.7 | 1.7 | 0.00 | 0.00 | 0.00 | 70 | 1016.8 |
| 20260507122848 | 48 | 176 | 1.7 | 2.6 | 0.00 | 0.00 | 0.00 | 70 | 1016.6 |
| 20260507122343 | 47 | 185 | 1.7 | 2.6 | 0.00 | 0.00 | 0.00 | 72 | 1016.7 |
| 20260507121840 | 47 | 243 | 0.9 | 2.6 | 0.00 | 0.00 | 0.00 | 72 | 1016.7 |
| 20260507121335 | 46 | 180 | 0.9 | 1.7 | 0.00 | 0.00 | 0.00 | 72 | 1016.8 |
| 20260507120832 | 46 | 165 | 0.9 | 1.7 | 0.00 | 0.00 | 0.00 | 71 | 1016.6 |
| 20260507120329 | 46 | 172 | 0.9 | 1.7 | 0.00 | 0.00 | 0.00 | 72 | 1016.6 |
| 20260507115825 | 45 | 187 | 0.9 | 1.7 | 0.00 | 0.00 | 0.00 | 72 | 1016.6 |
| 20260507115320 | 45 | 176 | 0.9 | 1.7 | 0.00 | 0.00 | 0.00 | 74 | 1016.5 |
| 20260507114816 | 44 | 185 | 1.7 | 1.7 | 0.00 | 0.00 | 0.00 | 74 | 1016.6 |
| 20260507114314 | 43 | 160 | 0.0 | 2.6 | 0.00 | 0.00 | 0.00 | 75 | 1016.4 |
| 20260507113811 | 41 | 175 | 0.9 | 1.7 | 0.00 | 0.00 | 0.00 | 80 | 1016.3 |
| 20260507113308 | 40 | 126 | 0.0 | 0.0 | 0.00 | 0.00 | 0.00 | 83 | 1016.3 |
| 20260507112806 | 40 | 130 | 0.0 | 0.0 | 0.00 | 0.00 | 0.00 | 83 | 1016.5 |
| 20260507112306 | 40 | 130 | 0.0 | 0.0 | 0.00 | 0.00 | 0.00 | 83 | 1016.4 |
| 20260507111801 | 40 | 130 | 0.0 | 0.0 | 0.00 | 0.00 | 0.00 | 83 | 1016.3 |
| 20260507111256 | 40 | 130 | 0.0 | 0.0 | 0.00 | 0.00 | 0.00 | 82 | 1016.2 |
| 20260507110753 | 40 | 125 | 0.0 | 0.0 | 0.00 | 0.00 | 0.00 | 81 | 1016.3 |
| 20260507110249 | 41 | 124 | 0.0 | 0.0 | 0.00 | 0.00 | 0.00 | 80 | 1016.3 |
| 20260507105746 | 41 | 125 | 0.0 | 0.0 | 0.00 | 0.00 | 0.00 | 78 | 1016.2 |
| 20260507105242 | 41 | 113 | 0.0 | 0.9 | 0.00 | 0.00 | 0.00 | 77 | 1016.3 |
| 20260507104740 | 41 | 136 | 0.0 | 0.0 | 0.00 | 0.00 | 0.00 | 77 | 1016.3 |
| 20260507104236 | 41 | 127 | 0.0 | 0.9 | 0.00 | 0.00 | 0.00 | 77 | 1016.3 |
| 20260507103732 | 41 | 134 | 0.0 | 0.9 | 0.00 | 0.00 | 0.00 | 76 | 1016.4 |
| 20260507103229 | 42 | 126 | 0.0 | 1.7 | 0.00 | 0.00 | 0.00 | 73 | 1016.2 |
| 20260507102725 | 42 | 168 | 0.9 | 0.9 | 0.00 | 0.00 | 0.00 | 73 | 1016.4 |
| 20260507102222 | 42 | 166 | 0.9 | 1.7 | 0.00 | 0.00 | 0.00 | 72 | 1016.6 |
| 20260507101718 | 42 | 169 | 0.9 | 1.7 | 0.00 | 0.00 | 0.00 | 72 | 1016.6 |
| 20260507101213 | 43 | 186 | 1.7 | 2.6 | 0.00 | 0.00 | 0.00 | 71 | 1016.7 |
| 20260507100711 | 42 | 187 | 1.7 | 2.6 | 0.00 | 0.00 | 0.00 | 71 | 1016.5 |
| 20260507100209 | 43 | 173 | 0.0 | 2.6 | 0.00 | 0.00 | 0.00 | 70 | 1016.4 |
| 20260507095706 | 43 | 176 | 1.7 | 1.7 | 0.00 | 0.00 | 0.00 | 70 | 1016.7 |
| 20260507095157 | 43 | 185 | 1.7 | 2.6 | 0.00 | 0.00 | 0.00 | 71 | 1016.6 |
| 20260507094654 | 43 | 184 | 2.6 | 3.5 | 0.00 | 0.00 | 0.00 | 70 | 1016.7 |
| 20260507094150 | 44 | 197 | 1.7 | 2.6 | 0.00 | 0.00 | 0.00 | 70 | 1016.5 |
| 20260507093648 | 43 | 175 | 2.6 | 3.5 | 0.00 | 0.00 | 0.00 | 68 | 1016.7 |
| 20260507093147 | 43 | 171 | 1.7 | 3.5 | 0.00 | 0.00 | 0.00 | 70 | 1016.7 |
| 20260507092643 | 43 | 176 | 1.7 | 2.6 | 0.00 | 0.00 | 0.00 | 71 | 1016.6 |
| 20260507092139 | 43 | 191 | 3.5 | 3.5 | 0.00 | 0.00 | 0.00 | 70 | 1016.7 |
| 20260507091636 | 42 | 194 | 2.6 | 2.6 | 0.00 | 0.00 | 0.00 | 74 | 1016.8 |
| 20260507091132 | 42 | 195 | 2.6 | 2.6 | 0.00 | 0.00 | 0.00 | 74 | 1016.9 |
| 20260507090628 | 41 | 180 | 1.7 | 2.6 | 0.00 | 0.00 | 0.00 | 76 | 1017.0 |
| 20260507090126 | 41 | 170 | 1.7 | 2.6 | 0.00 | 0.00 | 0.00 | 79 | 1017.0 |
| 20260507085622 | 41 | 133 | 2.6 | 2.6 | 0.00 | 0.00 | 0.00 | 78 | 1016.9 |
| 20260507085119 | 42 | 105 | 0.9 | 0.9 | 0.00 | 0.00 | 0.00 | 75 | 1016.9 |
| 20260507084615 | 42 | 178 | 0.9 | 1.7 | 0.00 | 0.00 | 0.00 | 76 | 1017.0 |
| 20260507084107 | 42 | 189 | 0.0 | 1.7 | 0.00 | 0.00 | 0.00 | 75 | 1017.0 |
| 20260507083603 | 43 | 197 | 0.9 | 1.7 | 0.00 | 0.00 | 0.00 | 73 | 1017.2 |
| 20260507083100 | 43 | 155 | 1.7 | 1.7 | 0.00 | 0.00 | 0.00 | 72 | 1017.2 |
| 20260507082556 | 43 | 177 | 1.7 | 1.7 | 0.00 | 0.00 | 0.00 | 73 | 1017.3 |
| 20260507082052 | 43 | 182 | 1.7 | 1.7 | 0.00 | 0.00 | 0.00 | 73 | 1017.3 |
| 20260507081549 | 43 | 177 | 1.7 | 1.7 | 0.00 | 0.00 | 0.00 | 73 | 1017.3 |
| 20260507081046 | 43 | 166 | 0.0 | 1.7 | 0.00 | 0.00 | 0.00 | 74 | 1017.3 |
| 20260507080542 | 43 | 177 | 0.9 | 1.7 | 0.00 | 0.00 | 0.00 | 74 | 1017.3 |
| 20260507080038 | 43 | 174 | 0.9 | 1.7 | 0.00 | 0.00 | 0.00 | 74 | 1017.4 |
| 20260507075534 | 43 | 179 | 0.9 | 1.7 | 0.00 | 0.00 | 0.00 | 73 | 1017.5 |
| 20260507075030 | 43 | 197 | 0.9 | 1.7 | 0.00 | 0.00 | 0.00 | 73 | 1017.4 |
| 20260507074527 | 43 | 183 | 0.9 | 1.7 | 0.00 | 0.00 | 0.00 | 72 | 1017.5 |
| 20260507074026 | 44 | 170 | 0.9 | 1.7 | 0.00 | 0.00 | 0.00 | 72 | 1017.3 |
| 20260507073521 | 44 | 155 | 0.9 | 1.7 | 0.00 | 0.00 | 0.00 | 71 | 1017.6 |
| 20260507073018 | 44 | 169 | 1.7 | 1.7 | 0.00 | 0.00 | 0.00 | 71 | 1017.5 |
| 20260507072516 | 43 | 195 | 0.9 | 1.7 | 0.00 | 0.00 | 0.00 | 72 | 1017.6 |
| 20260507072013 | 43 | 161 | 0.0 | 0.9 | 0.00 | 0.00 | 0.00 | 73 | 1017.6 |
| 20260507071510 | 43 | 159 | 0.0 | 0.9 | 0.00 | 0.00 | 0.00 | 72 | 1017.7 |
| 20260507071006 | 44 | 153 | 0.0 | 0.9 | 0.00 | 0.00 | 0.00 | 71 | 1017.6 |
| 20260507070504 | 44 | 133 | 0.0 | 1.7 | 0.00 | 0.00 | 0.00 | 70 | 1017.6 |
| 20260507070001 | 44 | 187 | 0.9 | 1.7 | 0.00 | 0.00 | 0.00 | 70 | 1017.8 |
| 20260507065457 | 44 | 188 | 0.9 | 2.6 | 0.00 | 0.00 | 0.00 | 70 | 1017.8 |
| 20260507064954 | 44 | 159 | 0.0 | 0.9 | 0.00 | 0.00 | 0.00 | 71 | 1017.8 |
| 20260507064452 | 44 | 159 | 0.0 | 0.9 | 0.00 | 0.00 | 0.00 | 71 | 1018.0 |
| 20260507063950 | 45 | 167 | 0.0 | 0.9 | 0.00 | 0.00 | 0.00 | 69 | 1017.9 |
| 20260507063447 | 45 | 169 | 0.9 | 0.9 | 0.00 | 0.00 | 0.00 | 67 | 1018.0 |
| 20260507062944 | 46 | 142 | 0.9 | 1.7 | 0.00 | 0.00 | 0.00 | 66 | 1017.9 |
| 20260507062441 | 46 | 180 | 1.7 | 1.7 | 0.00 | 0.00 | 0.00 | 64 | 1018.0 |
| 20260507061938 | 46 | 179 | 1.7 | 2.6 | 0.00 | 0.00 | 0.00 | 65 | 1018.1 |
| 20260507061436 | 46 | 177 | 0.9 | 1.7 | 0.00 | 0.00 | 0.00 | 65 | 1018.0 |
| 20260507060934 | 46 | 182 | 1.7 | 1.7 | 0.00 | 0.00 | 0.00 | 66 | 1018.2 |
| 20260507060431 | 46 | 161 | 0.9 | 1.7 | 0.00 | 0.00 | 0.00 | 66 | 1018.0 |
| 20260507055927 | 46 | 180 | 1.7 | 1.7 | 0.00 | 0.00 | 0.00 | 64 | 1018.1 |
| 20260507055422 | 46 | 171 | 0.9 | 0.9 | 0.00 | 0.00 | 0.00 | 68 | 1018.1 |
| 20260507054914 | 46 | 154 | 0.9 | 1.7 | 0.00 | 0.00 | 0.00 | 65 | 1018.3 |
| 20260507054410 | 46 | 181 | 0.9 | 1.7 | 0.00 | 0.00 | 0.00 | 67 | 1018.3 |
| 20260507053908 | 46 | 134 | 0.0 | 0.9 | 0.00 | 0.00 | 0.00 | 69 | 1018.2 |
| 20260507053405 | 47 | 155 | 0.0 | 1.7 | 0.00 | 0.00 | 0.00 | 67 | 1018.2 |
| 20260507052904 | 46 | 149 | 1.7 | 1.7 | 0.00 | 0.00 | 0.00 | 66 | 1018.3 |
| 20260507052400 | 46 | 181 | 0.9 | 1.7 | 0.00 | 0.00 | 0.00 | 68 | 1018.2 |
| 20260507051857 | 46 | 128 | 0.0 | 0.0 | 0.00 | 0.00 | 0.00 | 69 | 1018.3 |
| 20260507051355 | 47 | 141 | 0.0 | 0.9 | 0.00 | 0.00 | 0.00 | 68 | 1018.4 |
| 20260507050852 | 47 | 138 | 0.0 | 0.0 | 0.00 | 0.00 | 0.00 | 67 | 1018.3 |
| 20260507050348 | 47 | 139 | 0.0 | 0.9 | 0.00 | 0.00 | 0.00 | 66 | 1018.4 |
| 20260507045845 | 47 | 135 | 0.0 | 0.0 | 0.00 | 0.00 | 0.00 | 63 | 1018.6 |
| 20260507045341 | 48 | 138 | 0.0 | 0.9 | 0.00 | 0.00 | 0.00 | 60 | 1018.4 |
| 20260507044833 | 48 | 120 | 0.0 | 0.9 | 0.00 | 0.00 | 0.00 | 59 | 1018.3 |
| 20260507044329 | 48 | 163 | 0.9 | 0.9 | 0.00 | 0.00 | 0.00 | 59 | 1018.4 |
| 20260507043825 | 48 | 170 | 0.9 | 1.7 | 0.00 | 0.00 | 0.00 | 57 | 1018.4 |
| 20260507043322 | 47 | 178 | 1.7 | 1.7 | 0.00 | 0.00 | 0.00 | 61 | 1018.6 |
| 20260507042818 | 46 | 118 | 0.0 | 0.9 | 0.00 | 0.00 | 0.00 | 66 | 1018.6 |
| 20260507042314 | 46 | 160 | 0.9 | 0.9 | 0.00 | 0.00 | 0.00 | 64 | 1018.6 |
| 20260507041811 | 47 | 154 | 0.0 | 0.0 | 0.00 | 0.00 | 0.00 | 64 | 1018.6 |
| 20260507041308 | 47 | 154 | 0.0 | 0.0 | 0.00 | 0.00 | 0.00 | 65 | 1018.4 |
| 20260507040805 | 48 | 154 | 0.0 | 0.0 | 0.00 | 0.00 | 0.00 | 64 | 1018.4 |
| 20260507040301 | 48 | 154 | 0.0 | 0.0 | 0.00 | 0.00 | 0.00 | 58 | 1018.6 |
| 20260507035757 | 48 | 154 | 0.0 | 0.0 | 0.00 | 0.00 | 0.00 | 57 | 1018.3 |
| 20260507035252 | 48 | 155 | 0.0 | 0.0 | 0.00 | 0.00 | 0.00 | 58 | 1018.6 |
| 20260507034750 | 47 | 154 | 0.0 | 0.0 | 0.00 | 0.00 | 0.00 | 60 | 1018.7 |
| 20260507034247 | 47 | 154 | 0.0 | 0.0 | 0.00 | 0.00 | 0.00 | 59 | 1018.6 |
| 20260507033746 | 47 | 154 | 0.0 | 0.0 | 0.00 | 0.00 | 0.00 | 59 | 1018.4 |
| 20260507033243 | 48 | 154 | 0.0 | 0.0 | 0.00 | 0.00 | 0.00 | 61 | 1018.3 |
| 20260507032740 | 47 | 154 | 0.0 | 0.0 | 0.00 | 0.00 | 0.00 | 56 | 1018.6 |
| 20260507032236 | 47 | 154 | 0.0 | 0.0 | 0.00 | 0.00 | 0.00 | 58 | 1018.4 |
| 20260507031732 | 47 | 154 | 0.0 | 0.0 | 0.00 | 0.00 | 0.00 | 58 | 1018.6 |
| 20260507031229 | 48 | 154 | 0.0 | 0.0 | 0.00 | 0.00 | 0.00 | 55 | 1018.7 |
| 20260507030726 | 48 | 155 | 0.0 | 0.0 | 0.00 | 0.00 | 0.00 | 53 | 1018.4 |
| 20260507030224 | 48 | 155 | 0.0 | 0.0 | 0.00 | 0.00 | 0.00 | 55 | 1018.6 |
| 20260507025721 | 48 | 154 | 0.0 | 0.0 | 0.00 | 0.00 | 0.00 | 54 | 1018.6 |
| 20260507025218 | 47 | 154 | 0.9 | 0.9 | 0.00 | 0.00 | 0.00 | 55 | 1018.4 |
| 20260507024716 | 48 | 154 | 0.0 | 0.0 | 0.00 | 0.00 | 0.00 | 59 | 1018.4 |
| 20260507024213 | 48 | 154 | 0.0 | 0.9 | 0.00 | 0.00 | 0.00 | 52 | 1018.3 |
| 20260507023708 | 47 | 163 | 0.9 | 1.7 | 0.00 | 0.00 | 0.00 | 57 | 1018.4 |
| 20260507023205 | 47 | 116 | 0.0 | 0.0 | 0.00 | 0.00 | 0.00 | 59 | 1018.1 |
| 20260507022703 | 47 | 116 | 0.0 | 0.0 | 0.00 | 0.00 | 0.00 | 56 | 1018.1 |
| 20260507022158 | 47 | 116 | 0.0 | 0.0 | 0.00 | 0.00 | 0.00 | 60 | 1018.2 |
| 20260507021655 | 47 | 116 | 0.0 | 0.0 | 0.00 | 0.00 | 0.00 | 62 | 1018.2 |
| 20260507021150 | 48 | 116 | 0.0 | 0.0 | 0.00 | 0.00 | 0.00 | 63 | 1018.1 |
| 20260507020649 | 48 | 116 | 0.0 | 0.0 | 0.00 | 0.00 | 0.00 | 60 | 1018.1 |
| 20260507020144 | 48 | 116 | 0.0 | 0.0 | 0.00 | 0.00 | 0.00 | 59 | 1018.1 |
| 20260507015643 | 48 | 116 | 0.0 | 0.0 | 0.00 | 0.00 | 0.00 | 60 | 1018.1 |
| 20260507015140 | 49 | 116 | 0.0 | 0.0 | 0.00 | 0.00 | 0.00 | 61 | 1017.9 |
| 20260507014636 | 50 | 116 | 0.0 | 0.0 | 0.00 | 0.00 | 0.00 | 59 | 1018.0 |
| 20260507014132 | 50 | 116 | 0.0 | 0.0 | 0.00 | 0.00 | 0.00 | 56 | 1017.9 |
| 20260507013629 | 51 | 116 | 0.0 | 0.0 | 0.00 | 0.00 | 0.00 | 53 | 1017.9 |
| 20260507013127 | 51 | 116 | 0.0 | 0.0 | 0.00 | 0.00 | 0.00 | 52 | 1017.8 |
| 20260507012624 | 52 | 125 | 0.0 | 0.9 | 0.00 | 0.00 | 0.00 | 50 | 1017.7 |
| 20260507012119 | 53 | 140 | 0.0 | 0.0 | 0.00 | 0.00 | 0.00 | 44 | 1017.7 |
| 20260507011618 | 56 | 303 | 1.7 | 1.7 | 0.00 | 0.00 | 0.00 | 37 | 1017.8 |
| 20260507011113 | 56 | 303 | 1.7 | 1.7 | 0.00 | 0.00 | 0.00 | 37 | 1017.8 |
| 20260507010609 | 56 | 303 | 1.7 | 1.7 | 0.00 | 0.00 | 0.00 | 37 | 1017.8 |
| 20260507010104 | 56 | 303 | 1.7 | 1.7 | 0.00 | 0.00 | 0.00 | 37 | 1017.9 |
| 20260507005602 | 56 | 303 | 1.7 | 1.7 | 0.00 | 0.00 | 0.00 | 37 | 1017.8 |
| 20260507005058 | 56 | 303 | 1.7 | 1.7 | 0.00 | 0.00 | 0.00 | 37 | 1017.8 |
| 20260507004555 | 57 | 196 | 0.0 | 0.9 | 0.00 | 0.00 | 0.00 | 36 | 1017.9 |
| 20260507004053 | 57 | 125 | 0.9 | 2.6 | 0.00 | 0.00 | 0.00 | 36 | 1017.7 |
| 20260507003548 | 57 | 90 | 1.7 | 1.7 | 0.00 | 0.00 | 0.00 | 36 | 1017.8 |
| 20260507003043 | 58 | 94 | 0.0 | 1.7 | 0.00 | 0.00 | 0.00 | 35 | 1017.7 |
| 20260507002540 | 58 | 117 | 0.9 | 2.6 | 0.00 | 0.00 | 0.00 | 35 | 1018.0 |
| 20260507002036 | 58 | 141 | 0.0 | 0.0 | 0.00 | 0.00 | 0.00 | 35 | 1017.9 |
| 20260507001533 | 59 | 117 | 0.9 | 1.7 | 0.00 | 0.00 | 0.00 | 34 | 1017.7 |
| 20260507001031 | 60 | 233 | 0.9 | 1.7 | 0.00 | 0.00 | 0.00 | 32 | 1017.8 |
| 20260507000527 | 59 | 254 | 1.7 | 3.5 | 0.00 | 0.00 | 0.00 | 35 | 1017.7 |
| 20260507000023 | 60 | 233 | 2.6 | 3.5 | 0.00 | 0.00 | 0.00 | 35 | 1017.8 |
| 20260506235520 | 60 | 258 | 3.5 | 5.2 | 0.00 | 0.00 | 0.00 | 32 | 1017.9 |
| 20260506235015 | 60 | 163 | 0.0 | 1.7 | 0.00 | 0.00 | 0.00 | 35 | 1017.7 |